• Join FlightAware (Why Join?)
  • Login
  • US Flag 
02:31PM EDT


 

Airport Tracker/Info


-or-


 

Live Flight TrackerFlight Track Log ✈ CNS55 ✈ 19-Aug-2013 ✈ KACK - KOWD

Flight Track Log - Related Links

Times and Time Zones

All times are in EDT time to prevent confusion due to time zone crossing. See the CNS55 flight status page for this flight to view local times or setup timezone preferences in your user account.

Time Position Orientation Groundspeed Altitude Reporting Facility
EDT Latitude Longitude Course Direction KTS MPH feet Rate Location/Type
10:07PM 41.5418 -70.2876 330° Northwest  Level FlightAware Approximate
10:08PM 41.5902 -70.3251 330° Northwest  Level FlightAware Approximate
10:09PM 41.6386 -70.3627 330° Northwest  Level FlightAware Approximate
10:10PM 41.6870 -70.4003 330° Northwest  Level FlightAware Approximate
10:11PM 41.7355 -70.4380 330° Northwest  Level FlightAware Approximate
10:12PM 41.7838 -70.4758 330° Northwest  Level FlightAware Approximate
10:13PM 41.8322 -70.5136 330° Northwest  Level FlightAware Approximate
10:13PM 41.7667 -70.6833 300° West 219 252 6,500  Level KA90
10:14PM 41.8806 -70.5515 330° Northwest  Level FlightAware Approximate
10:14PM 41.8167 -70.7333 323° Northwest 218 251 6,500  Level KA90
10:15PM 41.9167 -70.6057 300° West  Level FlightAware Approximate
10:15PM 41.8500 -70.7833 312° West 220 253 6,500  Level KA90
10:15PM 41.9000 -70.8333 323° Northwest 221 254 6,500  Level KA90
10:16PM 41.9447 -70.6709 300° West  Level FlightAware Approximate
10:16PM 41.9500 -70.9000 315° West 221 254 6,500  Level KA90
10:17PM 41.9802 -70.7287 312° West  Level FlightAware Approximate
10:18PM 42.0090 -70.7932 300° West  Level FlightAware Approximate
10:18PM 42.0000 -70.9500 323° Northwest 217 250 5,900  Level KA90
10:19PM 42.0333 -71.0000 312° West 215 247 4,800 -1,140 Descending KA90
10:21PM 42.1179 -71.0929 304° West  Level Estimated
10:28PM 42.1833 -71.1667 304° West  Level FlightAware Approximate
10:29PM 42.1905 -71.1729 304° West  Level Estimated
10:30PM 42.1905 -71.1729 304° West  Level Estimated
10:31PM 42.1905 -71.1729 304° West  Level Estimated
10:32PM 42.1905 -71.1729 304° West  Level Estimated
10:33PM 42.1905 -71.1729 304° West  Level Estimated
10:34PM 42.1905 -71.1729 304° West  Level Estimated
10:35PM 42.1905 -71.1729 304° West  Level Estimated
10:36PM 42.1905 -71.1729 304° West  Level Estimated
10:37PM 42.1905 -71.1729 304° West  Level Estimated
10:38PM 42.1905 -71.1729 304° West  Level Estimated
10:39PM 42.1905 -71.1729 304° West  Level Estimated